sensor_id;sensor_type;location;lat;lon;timestamp;P1;durP1;ratioP1;P2;durP2;ratioP2
60038;SDS011;45916;52.734;6.544;2023-11-19T00:01:40;86.30;;;48.55;;
60038;SDS011;45916;52.734;6.544;2023-11-19T00:04:06;87.20;;;47.20;;
60038;SDS011;45916;52.734;6.544;2023-11-19T00:06:31;76.75;;;45.03;;
60038;SDS011;45916;52.734;6.544;2023-11-19T00:08:57;84.50;;;46.88;;
60038;SDS011;45916;52.734;6.544;2023-11-19T00:11:23;87.82;;;47.63;;
60038;SDS011;45916;52.734;6.544;2023-11-19T00:13:49;84.13;;;49.05;;
60038;SDS011;45916;52.734;6.544;2023-11-19T00:16:14;88.93;;;51.42;;
60038;SDS011;45916;52.734;6.544;2023-11-19T00:18:41;77.22;;;46.88;;
60038;SDS011;45916;52.734;6.544;2023-11-19T00:21:07;79.10;;;45.10;;
60038;SDS011;45916;52.734;6.544;2023-11-19T00:23:35;78.10;;;45.72;;
60038;SDS011;45916;52.734;6.544;2023-11-19T00:26:02;78.53;;;43.17;;
60038;SDS011;45916;52.734;6.544;2023-11-19T00:28:31;83.93;;;44.92;;
60038;SDS011;45916;52.734;6.544;2023-11-19T00:30:58;72.88;;;41.50;;
60038;SDS011;45916;52.734;6.544;2023-11-19T00:33:24;77.00;;;43.10;;
60038;SDS011;45916;52.734;6.544;2023-11-19T00:35:49;76.93;;;43.35;;
60038;SDS011;45916;52.734;6.544;2023-11-19T00:38:15;65.85;;;39.88;;
60038;SDS011;45916;52.734;6.544;2023-11-19T00:40:41;63.97;;;39.33;;
60038;SDS011;45916;52.734;6.544;2023-11-19T00:43:07;67.80;;;39.25;;
60038;SDS011;45916;52.734;6.544;2023-11-19T00:45:32;62.97;;;36.75;;
60038;SDS011;45916;52.734;6.544;2023-11-19T00:47:58;58.03;;;35.28;;
60038;SDS011;45916;52.734;6.544;2023-11-19T00:50:24;59.55;;;34.75;;
60038;SDS011;45916;52.734;6.544;2023-11-19T00:52:50;65.03;;;36.60;;
60038;SDS011;45916;52.734;6.544;2023-11-19T00:55:16;60.38;;;31.55;;
60038;SDS011;45916;52.734;6.544;2023-11-19T00:57:42;50.20;;;29.50;;
60038;SDS011;45916;52.734;6.544;2023-11-19T01:00:08;51.67;;;31.23;;
60038;SDS011;45916;52.734;6.544;2023-11-19T01:02:47;46.42;;;28.65;;
60038;SDS011;45916;52.734;6.544;2023-11-19T01:05:14;43.42;;;26.65;;
60038;SDS011;45916;52.734;6.544;2023-11-19T01:07:40;44.65;;;27.42;;
60038;SDS011;45916;52.734;6.544;2023-11-19T01:10:06;47.15;;;27.05;;
60038;SDS011;45916;52.734;6.544;2023-11-19T01:12:33;37.38;;;22.85;;
60038;SDS011;45916;52.734;6.544;2023-11-19T01:14:59;48.58;;;25.13;;
60038;SDS011;45916;52.734;6.544;2023-11-19T01:17:26;37.45;;;23.77;;
60038;SDS011;45916;52.734;6.544;2023-11-19T01:19:51;43.88;;;23.98;;
60038;SDS011;45916;52.734;6.544;2023-11-19T01:22:17;38.20;;;21.13;;
60038;SDS011;45916;52.734;6.544;2023-11-19T01:24:44;40.92;;;23.60;;
60038;SDS011;45916;52.734;6.544;2023-11-19T01:27:09;42.47;;;20.27;;
60038;SDS011;45916;52.734;6.544;2023-11-19T01:29:35;36.03;;;19.88;;
60038;SDS011;45916;52.734;6.544;2023-11-19T01:32:03;37.28;;;18.90;;
60038;SDS011;45916;52.734;6.544;2023-11-19T01:34:29;37.50;;;20.02;;
60038;SDS011;45916;52.734;6.544;2023-11-19T01:36:54;33.47;;;15.20;;
60038;SDS011;45916;52.734;6.544;2023-11-19T01:39:20;31.20;;;17.50;;
60038;SDS011;45916;52.734;6.544;2023-11-19T01:41:46;33.85;;;16.77;;
60038;SDS011;45916;52.734;6.544;2023-11-19T01:44:12;32.45;;;17.63;;
60038;SDS011;45916;52.734;6.544;2023-11-19T01:46:37;30.38;;;16.38;;
60038;SDS011;45916;52.734;6.544;2023-11-19T01:49:05;34.92;;;17.10;;
60038;SDS011;45916;52.734;6.544;2023-11-19T01:51:32;33.17;;;15.93;;
60038;SDS011;45916;52.734;6.544;2023-11-19T01:53:57;26.30;;;14.23;;
60038;SDS011;45916;52.734;6.544;2023-11-19T01:56:24;27.38;;;14.88;;
60038;SDS011;45916;52.734;6.544;2023-11-19T01:58:51;30.95;;;15.90;;
60038;SDS011;45916;52.734;6.544;2023-11-19T02:01:19;25.55;;;13.25;;
60038;SDS011;45916;52.734;6.544;2023-11-19T02:03:45;33.88;;;14.20;;
60038;SDS011;45916;52.734;6.544;2023-11-19T02:06:12;29.05;;;12.80;;
60038;SDS011;45916;52.734;6.544;2023-11-19T02:08:38;34.55;;;13.15;;
60038;SDS011;45916;52.734;6.544;2023-11-19T02:11:04;25.42;;;11.98;;
60038;SDS011;45916;52.734;6.544;2023-11-19T02:13:32;28.63;;;12.60;;
60038;SDS011;45916;52.734;6.544;2023-11-19T02:15:58;26.60;;;11.80;;
60038;SDS011;45916;52.734;6.544;2023-11-19T02:18:25;37.30;;;12.43;;
60038;SDS011;45916;52.734;6.544;2023-11-19T02:23:19;23.85;;;10.52;;
60038;SDS011;45916;52.734;6.544;2023-11-19T02:25:59;33.72;;;11.27;;
60038;SDS011;45916;52.734;6.544;2023-11-19T02:28:32;27.58;;;9.65;;
60038;SDS011;45916;52.734;6.544;2023-11-19T02:30:58;24.45;;;9.63;;
60038;SDS011;45916;52.734;6.544;2023-11-19T02:33:24;24.27;;;9.98;;
60038;SDS011;45916;52.734;6.544;2023-11-19T02:35:50;27.20;;;9.70;;
60038;SDS011;45916;52.734;6.544;2023-11-19T02:38:16;26.90;;;9.40;;
60038;SDS011;45916;52.734;6.544;2023-11-19T02:40:42;32.50;;;10.68;;
60038;SDS011;45916;52.734;6.544;2023-11-19T02:43:07;29.90;;;9.95;;
60038;SDS011;45916;52.734;6.544;2023-11-19T02:45:33;26.33;;;9.57;;
60038;SDS011;45916;52.734;6.544;2023-11-19T02:47:59;27.92;;;10.10;;
60038;SDS011;45916;52.734;6.544;2023-11-19T02:52:54;26.08;;;8.93;;
60038;SDS011;45916;52.734;6.544;2023-11-19T02:55:21;23.42;;;8.77;;
60038;SDS011;45916;52.734;6.544;2023-11-19T02:57:49;24.93;;;9.07;;
60038;SDS011;45916;52.734;6.544;2023-11-19T03:00:15;25.42;;;9.50;;
60038;SDS011;45916;52.734;6.544;2023-11-19T03:02:42;24.70;;;8.95;;
60038;SDS011;45916;52.734;6.544;2023-11-19T03:05:13;24.55;;;8.13;;
60038;SDS011;45916;52.734;6.544;2023-11-19T03:07:42;26.00;;;8.20;;
60038;SDS011;45916;52.734;6.544;2023-11-19T03:10:09;27.52;;;8.38;;
60038;SDS011;45916;52.734;6.544;2023-11-19T03:12:38;31.88;;;9.60;;
60038;SDS011;45916;52.734;6.544;2023-11-19T03:15:05;34.53;;;9.48;;
60038;SDS011;45916;52.734;6.544;2023-11-19T03:17:32;28.15;;;8.85;;
60038;SDS011;45916;52.734;6.544;2023-11-19T03:19:59;30.70;;;9.38;;
60038;SDS011;45916;52.734;6.544;2023-11-19T03:22:26;33.30;;;9.52;;
60038;SDS011;45916;52.734;6.544;2023-11-19T03:24:51;33.40;;;9.50;;
60038;SDS011;45916;52.734;6.544;2023-11-19T03:27:17;30.77;;;9.55;;
60038;SDS011;45916;52.734;6.544;2023-11-19T03:29:43;30.00;;;9.35;;
60038;SDS011;45916;52.734;6.544;2023-11-19T03:32:08;32.30;;;9.90;;
60038;SDS011;45916;52.734;6.544;2023-11-19T03:34:34;30.65;;;9.65;;
60038;SDS011;45916;52.734;6.544;2023-11-19T03:37:00;31.40;;;10.48;;
60038;SDS011;45916;52.734;6.544;2023-11-19T03:39:25;30.88;;;8.63;;
60038;SDS011;45916;52.734;6.544;2023-11-19T03:41:52;35.55;;;9.50;;
60038;SDS011;45916;52.734;6.544;2023-11-19T03:44:17;33.90;;;9.50;;
60038;SDS011;45916;52.734;6.544;2023-11-19T03:46:44;26.85;;;9.10;;
60038;SDS011;45916;52.734;6.544;2023-11-19T03:49:09;40.95;;;10.10;;
60038;SDS011;45916;52.734;6.544;2023-11-19T03:51:37;36.53;;;8.73;;
60038;SDS011;45916;52.734;6.544;2023-11-19T03:54:02;33.70;;;9.18;;
60038;SDS011;45916;52.734;6.544;2023-11-19T03:56:28;24.52;;;9.73;;
60038;SDS011;45916;52.734;6.544;2023-11-19T03:58:56;30.23;;;9.00;;
60038;SDS011;45916;52.734;6.544;2023-11-19T04:01:21;34.22;;;9.68;;
60038;SDS011;45916;52.734;6.544;2023-11-19T04:03:47;31.80;;;9.38;;
60038;SDS011;45916;52.734;6.544;2023-11-19T04:06:13;35.35;;;10.63;;
60038;SDS011;45916;52.734;6.544;2023-11-19T04:08:39;35.22;;;9.45;;
60038;SDS011;45916;52.734;6.544;2023-11-19T04:11:05;31.40;;;10.05;;
60038;SDS011;45916;52.734;6.544;2023-11-19T04:13:31;27.75;;;8.88;;
60038;SDS011;45916;52.734;6.544;2023-11-19T04:15:56;33.05;;;10.10;;
60038;SDS011;45916;52.734;6.544;2023-11-19T04:18:22;31.42;;;8.70;;
60038;SDS011;45916;52.734;6.544;2023-11-19T04:20:48;33.35;;;9.07;;
60038;SDS011;45916;52.734;6.544;2023-11-19T04:23:14;36.35;;;9.57;;
60038;SDS011;45916;52.734;6.544;2023-11-19T04:25:41;32.22;;;9.45;;
60038;SDS011;45916;52.734;6.544;2023-11-19T04:28:06;32.03;;;9.02;;
60038;SDS011;45916;52.734;6.544;2023-11-19T04:30:33;36.03;;;10.10;;
60038;SDS011;45916;52.734;6.544;2023-11-19T04:32:59;32.22;;;9.02;;
60038;SDS011;45916;52.734;6.544;2023-11-19T04:35:24;32.42;;;9.05;;
60038;SDS011;45916;52.734;6.544;2023-11-19T04:37:51;38.08;;;8.85;;
60038;SDS011;45916;52.734;6.544;2023-11-19T04:40:17;31.85;;;9.05;;
60038;SDS011;45916;52.734;6.544;2023-11-19T04:42:47;27.52;;;8.75;;
60038;SDS011;45916;52.734;6.544;2023-11-19T04:45:13;41.90;;;9.07;;
60038;SDS011;45916;52.734;6.544;2023-11-19T04:47:39;28.92;;;8.45;;
60038;SDS011;45916;52.734;6.544;2023-11-19T04:50:05;35.65;;;9.90;;
60038;SDS011;45916;52.734;6.544;2023-11-19T04:52:30;39.55;;;10.52;;
60038;SDS011;45916;52.734;6.544;2023-11-19T04:54:56;31.40;;;9.02;;
60038;SDS011;45916;52.734;6.544;2023-11-19T04:57:22;30.17;;;9.65;;
60038;SDS011;45916;52.734;6.544;2023-11-19T04:59:47;30.30;;;10.77;;
60038;SDS011;45916;52.734;6.544;2023-11-19T05:02:13;35.45;;;9.40;;
60038;SDS011;45916;52.734;6.544;2023-11-19T05:04:43;35.17;;;8.95;;
60038;SDS011;45916;52.734;6.544;2023-11-19T05:07:09;40.42;;;9.35;;
60038;SDS011;45916;52.734;6.544;2023-11-19T05:09:35;35.22;;;9.80;;
60038;SDS011;45916;52.734;6.544;2023-11-19T05:12:00;40.10;;;11.02;;
60038;SDS011;45916;52.734;6.544;2023-11-19T05:14:27;36.47;;;11.40;;
60038;SDS011;45916;52.734;6.544;2023-11-19T05:16:53;36.63;;;9.55;;
60038;SDS011;45916;52.734;6.544;2023-11-19T05:19:21;36.42;;;9.73;;
60038;SDS011;45916;52.734;6.544;2023-11-19T05:21:46;30.08;;;8.50;;
60038;SDS011;45916;52.734;6.544;2023-11-19T05:24:12;31.02;;;9.25;;
60038;SDS011;45916;52.734;6.544;2023-11-19T05:26:38;34.70;;;9.00;;
60038;SDS011;45916;52.734;6.544;2023-11-19T05:29:03;33.03;;;10.27;;
60038;SDS011;45916;52.734;6.544;2023-11-19T05:31:30;32.75;;;9.40;;
60038;SDS011;45916;52.734;6.544;2023-11-19T05:33:55;32.80;;;10.13;;
60038;SDS011;45916;52.734;6.544;2023-11-19T05:36:21;37.28;;;9.57;;
60038;SDS011;45916;52.734;6.544;2023-11-19T05:38:47;40.00;;;9.63;;
60038;SDS011;45916;52.734;6.544;2023-11-19T05:41:12;37.22;;;9.82;;
60038;SDS011;45916;52.734;6.544;2023-11-19T05:43:38;38.95;;;9.75;;
60038;SDS011;45916;52.734;6.544;2023-11-19T05:46:05;37.58;;;8.93;;
60038;SDS011;45916;52.734;6.544;2023-11-19T05:48:32;30.70;;;9.32;;
60038;SDS011;45916;52.734;6.544;2023-11-19T05:50:58;33.00;;;10.90;;
60038;SDS011;45916;52.734;6.544;2023-11-19T05:53:24;39.70;;;10.55;;
60038;SDS011;45916;52.734;6.544;2023-11-19T05:55:50;33.53;;;9.30;;
60038;SDS011;45916;52.734;6.544;2023-11-19T05:58:27;37.78;;;9.30;;
60038;SDS011;45916;52.734;6.544;2023-11-19T06:00:57;27.63;;;8.95;;
60038;SDS011;45916;52.734;6.544;2023-11-19T06:03:26;30.05;;;10.18;;
60038;SDS011;45916;52.734;6.544;2023-11-19T06:05:51;41.50;;;10.93;;
60038;SDS011;45916;52.734;6.544;2023-11-19T06:08:17;33.20;;;9.93;;
60038;SDS011;45916;52.734;6.544;2023-11-19T06:10:45;31.90;;;9.35;;
60038;SDS011;45916;52.734;6.544;2023-11-19T06:13:15;31.45;;;9.02;;
60038;SDS011;45916;52.734;6.544;2023-11-19T06:15:44;28.85;;;8.60;;
60038;SDS011;45916;52.734;6.544;2023-11-19T06:18:10;36.38;;;9.35;;
60038;SDS011;45916;52.734;6.544;2023-11-19T06:20:40;29.48;;;8.90;;
60038;SDS011;45916;52.734;6.544;2023-11-19T06:23:06;31.13;;;9.32;;
60038;SDS011;45916;52.734;6.544;2023-11-19T06:25:31;36.30;;;10.40;;
60038;SDS011;45916;52.734;6.544;2023-11-19T06:27:58;28.00;;;9.30;;
60038;SDS011;45916;52.734;6.544;2023-11-19T06:30:24;34.28;;;10.65;;
60038;SDS011;45916;52.734;6.544;2023-11-19T06:32:50;30.48;;;8.88;;
60038;SDS011;45916;52.734;6.544;2023-11-19T06:35:16;30.30;;;9.00;;
60038;SDS011;45916;52.734;6.544;2023-11-19T06:37:42;30.95;;;9.07;;
60038;SDS011;45916;52.734;6.544;2023-11-19T06:40:08;31.27;;;9.13;;
60038;SDS011;45916;52.734;6.544;2023-11-19T06:42:34;32.88;;;8.82;;
60038;SDS011;45916;52.734;6.544;2023-11-19T06:45:00;34.25;;;8.35;;
60038;SDS011;45916;52.734;6.544;2023-11-19T06:47:27;31.70;;;9.95;;
60038;SDS011;45916;52.734;6.544;2023-11-19T06:49:53;34.60;;;8.57;;
60038;SDS011;45916;52.734;6.544;2023-11-19T06:52:19;32.75;;;10.05;;
60038;SDS011;45916;52.734;6.544;2023-11-19T06:54:46;37.78;;;9.65;;
60038;SDS011;45916;52.734;6.544;2023-11-19T06:57:12;35.95;;;9.50;;
60038;SDS011;45916;52.734;6.544;2023-11-19T06:59:38;34.05;;;9.23;;
60038;SDS011;45916;52.734;6.544;2023-11-19T07:02:04;26.58;;;9.02;;
60038;SDS011;45916;52.734;6.544;2023-11-19T07:04:30;32.35;;;8.80;;
60038;SDS011;45916;52.734;6.544;2023-11-19T07:06:56;28.67;;;9.02;;
60038;SDS011;45916;52.734;6.544;2023-11-19T07:09:22;34.60;;;8.90;;
60038;SDS011;45916;52.734;6.544;2023-11-19T07:11:48;30.67;;;9.38;;
60038;SDS011;45916;52.734;6.544;2023-11-19T07:14:17;31.75;;;9.20;;
60038;SDS011;45916;52.734;6.544;2023-11-19T07:16:43;36.05;;;8.90;;
60038;SDS011;45916;52.734;6.544;2023-11-19T07:19:09;33.53;;;8.93;;
60038;SDS011;45916;52.734;6.544;2023-11-19T07:21:35;32.38;;;9.48;;
60038;SDS011;45916;52.734;6.544;2023-11-19T07:24:04;32.67;;;8.52;;
60038;SDS011;45916;52.734;6.544;2023-11-19T07:26:32;33.13;;;9.60;;
60038;SDS011;45916;52.734;6.544;2023-11-19T07:28:57;31.63;;;8.30;;
60038;SDS011;45916;52.734;6.544;2023-11-19T07:31:23;28.63;;;8.32;;
60038;SDS011;45916;52.734;6.544;2023-11-19T07:33:49;29.20;;;9.23;;
60038;SDS011;45916;52.734;6.544;2023-11-19T07:36:15;34.47;;;8.88;;
60038;SDS011;45916;52.734;6.544;2023-11-19T07:38:41;30.98;;;9.88;;
60038;SDS011;45916;52.734;6.544;2023-11-19T07:41:07;31.88;;;9.32;;
60038;SDS011;45916;52.734;6.544;2023-11-19T07:43:42;33.90;;;9.15;;
60038;SDS011;45916;52.734;6.544;2023-11-19T07:46:12;27.92;;;8.88;;
60038;SDS011;45916;52.734;6.544;2023-11-19T07:48:41;32.22;;;8.40;;
60038;SDS011;45916;52.734;6.544;2023-11-19T07:51:07;30.23;;;9.38;;
60038;SDS011;45916;52.734;6.544;2023-11-19T07:53:33;28.30;;;8.93;;
60038;SDS011;45916;52.734;6.544;2023-11-19T07:56:00;31.10;;;7.97;;
60038;SDS011;45916;52.734;6.544;2023-11-19T07:58:25;33.90;;;9.75;;
60038;SDS011;45916;52.734;6.544;2023-11-19T08:00:51;29.85;;;9.35;;
60038;SDS011;45916;52.734;6.544;2023-11-19T08:03:17;40.53;;;10.15;;
60038;SDS011;45916;52.734;6.544;2023-11-19T08:05:44;31.27;;;9.55;;
60038;SDS011;45916;52.734;6.544;2023-11-19T08:08:11;31.02;;;8.52;;
60038;SDS011;45916;52.734;6.544;2023-11-19T08:10:37;30.63;;;9.07;;
60038;SDS011;45916;52.734;6.544;2023-11-19T08:13:02;32.83;;;9.30;;
60038;SDS011;45916;52.734;6.544;2023-11-19T08:15:28;32.63;;;7.90;;
60038;SDS011;45916;52.734;6.544;2023-11-19T08:17:54;31.75;;;8.30;;
60038;SDS011;45916;52.734;6.544;2023-11-19T08:20:20;26.45;;;8.55;;
60038;SDS011;45916;52.734;6.544;2023-11-19T08:22:45;30.17;;;8.10;;
60038;SDS011;45916;52.734;6.544;2023-11-19T08:25:11;32.55;;;9.50;;
60038;SDS011;45916;52.734;6.544;2023-11-19T08:27:37;32.85;;;8.35;;
60038;SDS011;45916;52.734;6.544;2023-11-19T08:30:03;25.30;;;9.00;;
60038;SDS011;45916;52.734;6.544;2023-11-19T08:34:56;34.97;;;9.00;;
60038;SDS011;45916;52.734;6.544;2023-11-19T08:37:22;29.65;;;8.95;;
60038;SDS011;45916;52.734;6.544;2023-11-19T08:39:48;27.15;;;7.50;;
60038;SDS011;45916;52.734;6.544;2023-11-19T08:42:14;31.30;;;8.82;;
60038;SDS011;45916;52.734;6.544;2023-11-19T08:44:41;31.70;;;8.32;;
60038;SDS011;45916;52.734;6.544;2023-11-19T08:47:08;32.95;;;8.55;;
60038;SDS011;45916;52.734;6.544;2023-11-19T08:49:35;34.17;;;8.32;;
60038;SDS011;45916;52.734;6.544;2023-11-19T08:52:01;32.33;;;9.20;;
60038;SDS011;45916;52.734;6.544;2023-11-19T08:54:27;29.83;;;8.73;;
60038;SDS011;45916;52.734;6.544;2023-11-19T08:56:53;27.27;;;9.18;;
60038;SDS011;45916;52.734;6.544;2023-11-19T08:59:18;37.33;;;11.07;;
60038;SDS011;45916;52.734;6.544;2023-11-19T09:01:45;36.42;;;9.63;;
60038;SDS011;45916;52.734;6.544;2023-11-19T09:04:10;29.55;;;8.38;;
60038;SDS011;45916;52.734;6.544;2023-11-19T09:06:37;27.73;;;8.27;;
60038;SDS011;45916;52.734;6.544;2023-11-19T09:09:04;29.55;;;9.00;;
60038;SDS011;45916;52.734;6.544;2023-11-19T09:11:30;27.90;;;8.60;;
60038;SDS011;45916;52.734;6.544;2023-11-19T09:13:56;28.83;;;8.85;;
60038;SDS011;45916;52.734;6.544;2023-11-19T09:16:22;33.60;;;8.60;;
60038;SDS011;45916;52.734;6.544;2023-11-19T09:18:48;31.63;;;8.73;;
60038;SDS011;45916;52.734;6.544;2023-11-19T09:21:14;32.92;;;8.88;;
60038;SDS011;45916;52.734;6.544;2023-11-19T09:23:39;25.67;;;7.97;;
60038;SDS011;45916;52.734;6.544;2023-11-19T09:26:05;28.70;;;8.00;;
60038;SDS011;45916;52.734;6.544;2023-11-19T09:28:33;28.80;;;8.15;;
60038;SDS011;45916;52.734;6.544;2023-11-19T09:30:58;34.10;;;8.27;;
60038;SDS011;45916;52.734;6.544;2023-11-19T09:33:24;26.88;;;8.13;;
60038;SDS011;45916;52.734;6.544;2023-11-19T09:35:51;30.55;;;7.50;;
60038;SDS011;45916;52.734;6.544;2023-11-19T09:38:17;28.70;;;8.27;;
60038;SDS011;45916;52.734;6.544;2023-11-19T09:40:42;30.65;;;8.50;;
60038;SDS011;45916;52.734;6.544;2023-11-19T09:43:08;30.65;;;7.90;;
60038;SDS011;45916;52.734;6.544;2023-11-19T09:45:48;28.45;;;8.02;;
60038;SDS011;45916;52.734;6.544;2023-11-19T09:48:18;28.98;;;7.53;;
60038;SDS011;45916;52.734;6.544;2023-11-19T09:50:47;32.53;;;9.07;;
60038;SDS011;45916;52.734;6.544;2023-11-19T09:53:14;29.20;;;7.93;;
60038;SDS011;45916;52.734;6.544;2023-11-19T09:55:40;26.30;;;7.57;;
60038;SDS011;45916;52.734;6.544;2023-11-19T09:58:07;31.55;;;9.65;;
60038;SDS011;45916;52.734;6.544;2023-11-19T10:00:33;32.28;;;8.60;;
60038;SDS011;45916;52.734;6.544;2023-11-19T10:02:59;28.85;;;7.82;;
60038;SDS011;45916;52.734;6.544;2023-11-19T10:05:25;29.05;;;8.73;;
60038;SDS011;45916;52.734;6.544;2023-11-19T10:07:51;29.35;;;8.93;;
60038;SDS011;45916;52.734;6.544;2023-11-19T10:10:18;28.48;;;8.13;;
60038;SDS011;45916;52.734;6.544;2023-11-19T10:12:47;29.95;;;7.95;;
60038;SDS011;45916;52.734;6.544;2023-11-19T10:15:22;34.10;;;9.30;;
60038;SDS011;45916;52.734;6.544;2023-11-19T10:17:52;28.33;;;8.40;;
60038;SDS011;45916;52.734;6.544;2023-11-19T10:20:23;27.73;;;7.70;;
60038;SDS011;45916;52.734;6.544;2023-11-19T10:22:52;30.67;;;8.57;;
60038;SDS011;45916;52.734;6.544;2023-11-19T10:27:47;29.92;;;9.25;;
60038;SDS011;45916;52.734;6.544;2023-11-19T10:30:13;26.77;;;8.70;;
60038;SDS011;45916;52.734;6.544;2023-11-19T10:33:07;31.63;;;8.20;;
60038;SDS011;45916;52.734;6.544;2023-11-19T10:35:52;32.92;;;9.95;;
60038;SDS011;45916;52.734;6.544;2023-11-19T10:38:18;32.28;;;9.13;;
60038;SDS011;45916;52.734;6.544;2023-11-19T10:40:44;31.98;;;8.77;;
60038;SDS011;45916;52.734;6.544;2023-11-19T10:43:10;30.50;;;8.35;;
60038;SDS011;45916;52.734;6.544;2023-11-19T10:45:36;28.30;;;8.50;;
60038;SDS011;45916;52.734;6.544;2023-11-19T10:48:03;27.90;;;8.80;;
60038;SDS011;45916;52.734;6.544;2023-11-19T10:50:37;27.45;;;8.65;;
60038;SDS011;45916;52.734;6.544;2023-11-19T10:53:04;30.75;;;8.50;;
60038;SDS011;45916;52.734;6.544;2023-11-19T10:55:31;29.35;;;8.52;;
60038;SDS011;45916;52.734;6.544;2023-11-19T10:58:00;30.92;;;9.18;;
60038;SDS011;45916;52.734;6.544;2023-11-19T11:00:47;30.42;;;8.38;;
60038;SDS011;45916;52.734;6.544;2023-11-19T11:03:18;32.80;;;9.25;;
60038;SDS011;45916;52.734;6.544;2023-11-19T11:05:48;27.25;;;7.22;;
60038;SDS011;45916;52.734;6.544;2023-11-19T11:08:15;27.90;;;8.05;;
60038;SDS011;45916;52.734;6.544;2023-11-19T11:10:44;29.63;;;9.15;;
60038;SDS011;45916;52.734;6.544;2023-11-19T11:13:13;28.92;;;9.70;;
60038;SDS011;45916;52.734;6.544;2023-11-19T11:15:39;34.67;;;8.60;;
60038;SDS011;45916;52.734;6.544;2023-11-19T11:18:10;32.67;;;8.68;;
60038;SDS011;45916;52.734;6.544;2023-11-19T11:28:39;30.83;;;8.65;;
60038;SDS011;45916;52.734;6.544;2023-11-19T11:31:21;26.38;;;7.47;;
60038;SDS011;45916;52.734;6.544;2023-11-19T11:34:02;31.77;;;8.63;;
60038;SDS011;45916;52.734;6.544;2023-11-19T11:39:31;29.23;;;7.53;;
60038;SDS011;45916;52.734;6.544;2023-11-19T11:44:57;34.40;;;9.05;;
60038;SDS011;45916;52.734;6.544;2023-11-19T11:50:11;33.83;;;8.40;;
60038;SDS011;45916;52.734;6.544;2023-11-19T11:57:59;28.95;;;8.00;;
60038;SDS011;45916;52.734;6.544;2023-11-19T12:00:31;20.58;;;6.32;;
60038;SDS011;45916;52.734;6.544;2023-11-19T12:03:02;19.95;;;7.32;;
60038;SDS011;45916;52.734;6.544;2023-11-19T12:05:30;26.08;;;8.13;;
60038;SDS011;45916;52.734;6.544;2023-11-19T12:07:56;24.80;;;6.88;;
60038;SDS011;45916;52.734;6.544;2023-11-19T12:10:30;25.30;;;7.80;;
60038;SDS011;45916;52.734;6.544;2023-11-19T12:13:00;28.33;;;8.02;;
60038;SDS011;45916;52.734;6.544;2023-11-19T12:15:27;34.50;;;8.82;;
60038;SDS011;45916;52.734;6.544;2023-11-19T12:17:53;29.80;;;9.45;;
60038;SDS011;45916;52.734;6.544;2023-11-19T12:20:23;33.03;;;7.88;;
60038;SDS011;45916;52.734;6.544;2023-11-19T12:22:51;22.25;;;7.57;;
60038;SDS011;45916;52.734;6.544;2023-11-19T12:25:18;28.48;;;8.48;;
60038;SDS011;45916;52.734;6.544;2023-11-19T12:27:51;26.48;;;8.38;;
60038;SDS011;45916;52.734;6.544;2023-11-19T12:30:27;30.33;;;8.77;;
60038;SDS011;45916;52.734;6.544;2023-11-19T12:32:54;28.48;;;7.70;;
60038;SDS011;45916;52.734;6.544;2023-11-19T12:35:20;27.65;;;7.85;;
60038;SDS011;45916;52.734;6.544;2023-11-19T12:37:46;26.00;;;7.45;;
60038;SDS011;45916;52.734;6.544;2023-11-19T12:40:13;21.37;;;7.50;;
60038;SDS011;45916;52.734;6.544;2023-11-19T12:42:44;19.83;;;6.93;;
60038;SDS011;45916;52.734;6.544;2023-11-19T12:45:10;31.45;;;7.43;;
60038;SDS011;45916;52.734;6.544;2023-11-19T12:47:37;25.83;;;7.80;;
60038;SDS011;45916;52.734;6.544;2023-11-19T12:50:04;27.55;;;8.20;;
60038;SDS011;45916;52.734;6.544;2023-11-19T12:52:30;24.20;;;7.60;;
60038;SDS011;45916;52.734;6.544;2023-11-19T12:54:56;23.77;;;9.65;;
60038;SDS011;45916;52.734;6.544;2023-11-19T12:57:44;26.05;;;6.65;;
60038;SDS011;45916;52.734;6.544;2023-11-19T13:00:18;26.05;;;7.88;;
60038;SDS011;45916;52.734;6.544;2023-11-19T13:02:48;29.67;;;8.13;;
60038;SDS011;45916;52.734;6.544;2023-11-19T13:08:00;27.95;;;7.90;;
60038;SDS011;45916;52.734;6.544;2023-11-19T13:10:33;28.17;;;7.55;;
60038;SDS011;45916;52.734;6.544;2023-11-19T13:13:15;25.00;;;6.82;;
60038;SDS011;45916;52.734;6.544;2023-11-19T13:15:41;25.35;;;7.13;;
60038;SDS011;45916;52.734;6.544;2023-11-19T13:18:06;25.63;;;7.18;;
60038;SDS011;45916;52.734;6.544;2023-11-19T13:20:32;25.52;;;7.18;;
60038;SDS011;45916;52.734;6.544;2023-11-19T13:22:58;25.45;;;6.65;;
60038;SDS011;45916;52.734;6.544;2023-11-19T13:25:25;30.63;;;7.88;;
60038;SDS011;45916;52.734;6.544;2023-11-19T13:27:52;24.80;;;6.75;;
60038;SDS011;45916;52.734;6.544;2023-11-19T13:30:18;26.27;;;7.20;;
60038;SDS011;45916;52.734;6.544;2023-11-19T13:32:44;23.63;;;7.20;;
60038;SDS011;45916;52.734;6.544;2023-11-19T13:35:11;23.23;;;6.05;;
60038;SDS011;45916;52.734;6.544;2023-11-19T13:37:38;34.33;;;6.43;;
60038;SDS011;45916;52.734;6.544;2023-11-19T13:40:05;22.63;;;6.07;;
60038;SDS011;45916;52.734;6.544;2023-11-19T13:42:39;30.23;;;7.15;;
60038;SDS011;45916;52.734;6.544;2023-11-19T13:45:15;21.70;;;5.70;;
60038;SDS011;45916;52.734;6.544;2023-11-19T13:47:43;23.42;;;6.30;;
60038;SDS011;45916;52.734;6.544;2023-11-19T13:50:13;27.95;;;6.43;;
60038;SDS011;45916;52.734;6.544;2023-11-19T13:52:41;26.05;;;7.40;;
60038;SDS011;45916;52.734;6.544;2023-11-19T13:55:08;32.08;;;7.68;;
60038;SDS011;45916;52.734;6.544;2023-11-19T13:57:38;25.95;;;7.30;;
60038;SDS011;45916;52.734;6.544;2023-11-19T14:00:05;25.35;;;6.70;;
60038;SDS011;45916;52.734;6.544;2023-11-19T14:02:38;19.98;;;6.03;;
60038;SDS011;45916;52.734;6.544;2023-11-19T14:05:07;19.83;;;6.13;;
60038;SDS011;45916;52.734;6.544;2023-11-19T14:07:33;28.92;;;6.75;;
60038;SDS011;45916;52.734;6.544;2023-11-19T14:09:59;27.08;;;8.18;;
60038;SDS011;45916;52.734;6.544;2023-11-19T14:12:25;26.02;;;7.25;;
60038;SDS011;45916;52.734;6.544;2023-11-19T14:14:50;25.55;;;7.28;;
60038;SDS011;45916;52.734;6.544;2023-11-19T14:17:16;24.02;;;7.00;;
60038;SDS011;45916;52.734;6.544;2023-11-19T14:19:43;22.38;;;6.10;;
60038;SDS011;45916;52.734;6.544;2023-11-19T14:22:09;24.65;;;7.10;;
60038;SDS011;45916;52.734;6.544;2023-11-19T14:24:36;32.53;;;7.60;;
60038;SDS011;45916;52.734;6.544;2023-11-19T14:27:02;25.58;;;6.82;;
60038;SDS011;45916;52.734;6.544;2023-11-19T14:29:28;29.25;;;7.03;;
60038;SDS011;45916;52.734;6.544;2023-11-19T14:31:55;28.13;;;7.50;;
60038;SDS011;45916;52.734;6.544;2023-11-19T14:34:21;27.02;;;7.53;;
60038;SDS011;45916;52.734;6.544;2023-11-19T14:36:47;22.33;;;6.05;;
60038;SDS011;45916;52.734;6.544;2023-11-19T14:39:14;27.00;;;7.03;;
60038;SDS011;45916;52.734;6.544;2023-11-19T14:41:40;25.02;;;6.80;;
60038;SDS011;45916;52.734;6.544;2023-11-19T14:44:07;24.15;;;6.13;;
60038;SDS011;45916;52.734;6.544;2023-11-19T14:46:34;24.05;;;7.10;;
60038;SDS011;45916;52.734;6.544;2023-11-19T14:49:00;23.40;;;6.13;;
60038;SDS011;45916;52.734;6.544;2023-11-19T14:51:26;23.55;;;6.00;;
60038;SDS011;45916;52.734;6.544;2023-11-19T14:53:52;26.45;;;6.80;;
60038;SDS011;45916;52.734;6.544;2023-11-19T14:56:17;24.13;;;6.40;;
60038;SDS011;45916;52.734;6.544;2023-11-19T14:58:43;24.95;;;7.07;;
60038;SDS011;45916;52.734;6.544;2023-11-19T15:01:13;24.27;;;6.50;;
60038;SDS011;45916;52.734;6.544;2023-11-19T15:03:39;20.02;;;6.03;;
60038;SDS011;45916;52.734;6.544;2023-11-19T15:06:05;21.67;;;6.57;;